createdAt,value
2022-09-20T00:01:28.552Z,10.33
2022-09-20T00:03:59.240Z,10.30
2022-09-20T00:06:29.949Z,10.29
2022-09-20T00:08:59.692Z,10.26
2022-09-20T00:11:31.003Z,10.23
2022-09-20T00:14:00.889Z,10.21
2022-09-20T00:16:36.426Z,10.19
2022-09-20T00:19:06.010Z,10.16
2022-09-20T00:21:36.520Z,10.15
2022-09-20T00:24:06.119Z,10.13
2022-09-20T00:26:34.174Z,10.11
2022-09-20T00:29:02.212Z,10.09
2022-09-20T00:31:30.086Z,10.07
2022-09-20T00:34:18.029Z,10.04
2022-09-20T00:36:46.209Z,10.01
2022-09-20T00:39:15.762Z,9.98
2022-09-20T00:41:44.294Z,9.95
2022-09-20T00:44:40.242Z,9.91
2022-09-20T00:47:14.587Z,9.89
2022-09-20T00:49:42.524Z,9.87
2022-09-20T00:52:10.680Z,9.85
2022-09-20T00:54:38.557Z,9.83
2022-09-20T00:57:06.500Z,9.81
2022-09-20T00:59:40.248Z,9.79
2022-09-20T01:02:17.120Z,9.76
2022-09-20T01:04:47.430Z,9.74
2022-09-20T01:07:19.234Z,9.73
2022-09-20T01:09:47.281Z,9.72
2022-09-20T01:12:18.711Z,9.71
2022-09-20T01:14:49.041Z,9.70
2022-09-20T01:17:19.638Z,9.69
2022-09-20T01:20:15.889Z,9.67
2022-09-20T01:23:22.808Z,9.65
2022-09-20T01:26:15.620Z,9.63
2022-09-20T01:28:49.364Z,9.62
2022-09-20T01:31:25.666Z,9.61
2022-09-20T01:33:58.046Z,9.60
2022-09-20T01:36:38.276Z,9.59
2022-09-20T01:39:16.669Z,9.57
2022-09-20T01:41:51.857Z,9.56
2022-09-20T01:45:04.880Z,9.53
2022-09-20T01:47:38.360Z,9.50
2022-09-20T01:50:19.816Z,9.49
2022-09-20T01:52:56.574Z,9.47
2022-09-20T01:55:24.513Z,9.46
2022-09-20T01:58:03.251Z,9.45
2022-09-20T02:00:54.677Z,9.44
2022-09-20T02:04:00.691Z,9.43
2022-09-20T02:06:59.769Z,9.41
2022-09-20T02:10:07.790Z,9.40
2022-09-20T02:12:53.460Z,9.38
2022-09-20T02:16:03.451Z,9.36
2022-09-20T02:18:57.322Z,9.36
2022-09-20T02:21:52.805Z,9.38
2022-09-20T02:24:37.828Z,9.38
2022-09-20T02:27:25.927Z,9.41
2022-09-20T02:30:24.421Z,9.43
2022-09-20T02:33:11.715Z,9.45
2022-09-20T02:35:55.356Z,9.46
2022-09-20T02:38:35.327Z,9.46
2022-09-20T02:41:27.368Z,9.46
2022-09-20T02:44:09.194Z,9.46
2022-09-20T02:47:08.366Z,9.45
2022-09-20T02:49:55.417Z,9.46
2022-09-20T02:52:36.697Z,9.47
2022-09-20T02:55:18.111Z,9.46
2022-09-20T02:57:50.854Z,9.44
2022-09-20T03:00:29.027Z,9.42
2022-09-20T03:03:22.191Z,9.39
2022-09-20T03:06:27.753Z,9.37
2022-09-20T03:09:28.358Z,9.35
2022-09-20T03:12:08.677Z,9.34
2022-09-20T03:14:53.014Z,9.34
2022-09-20T03:17:42.569Z,9.35
2022-09-20T03:20:32.655Z,9.34
2022-09-20T03:23:26.051Z,9.33
2022-09-20T03:26:04.852Z,9.33
2022-09-20T03:29:09.230Z,9.32
2022-09-20T03:31:47.930Z,9.30
2022-09-20T03:34:27.573Z,9.29
2022-09-20T03:37:10.455Z,9.28
2022-09-20T03:39:51.245Z,9.27
2022-09-20T03:42:46.334Z,9.28
2022-09-20T03:45:30.736Z,9.29
2022-09-20T03:48:17.548Z,9.28
2022-09-20T03:51:08.415Z,9.29
2022-09-20T03:54:19.805Z,9.28
2022-09-20T03:56:53.323Z,9.28
2022-09-20T03:59:58.410Z,9.29
2022-09-20T04:02:45.512Z,9.28
2022-09-20T04:05:24.714Z,9.29
2022-09-20T04:08:01.450Z,9.30
2022-09-20T04:10:51.685Z,9.31
2022-09-20T04:13:48.104Z,9.31
2022-09-20T04:16:37.436Z,9.31
2022-09-20T04:19:35.338Z,9.33
2022-09-20T04:22:04.083Z,9.32
2022-09-20T04:24:43.298Z,9.33
2022-09-20T04:27:14.450Z,9.33
2022-09-20T04:30:05.595Z,9.33
2022-09-20T04:32:41.921Z,9.33
2022-09-20T04:35:37.743Z,9.32
2022-09-20T04:38:12.443Z,9.33
2022-09-20T04:41:08.649Z,9.32
2022-09-20T04:44:11.558Z,9.31
2022-09-20T04:47:06.291Z,9.31
2022-09-20T04:49:57.906Z,9.30
2022-09-20T04:53:14.922Z,9.30
2022-09-20T04:56:02.074Z,9.33
2022-09-20T04:58:36.454Z,9.38
2022-09-20T05:01:19.791Z,9.39
2022-09-20T05:04:08.934Z,9.43
2022-09-20T05:07:14.797Z,9.45
2022-09-20T05:10:16.750Z,9.46
2022-09-20T05:13:05.458Z,9.49
2022-09-20T05:15:38.817Z,9.49
2022-09-20T05:18:37.583Z,9.50
2022-09-20T05:21:56.388Z,9.51
2022-09-20T05:24:49.733Z,9.51
2022-09-20T05:27:30.111Z,9.51
2022-09-20T05:30:07.412Z,9.51
2022-09-20T05:33:02.298Z,9.50
2022-09-20T05:35:54.641Z,9.51
2022-09-20T05:38:32.459Z,9.52
2022-09-20T05:41:24.174Z,9.54
2022-09-20T05:44:22.903Z,9.55
2022-09-20T05:47:16.004Z,9.56
2022-09-20T05:50:00.839Z,9.58
2022-09-20T05:52:47.161Z,9.58
2022-09-20T05:55:35.909Z,9.60
2022-09-20T05:58:32.393Z,9.61
2022-09-20T06:01:23.524Z,9.63
2022-09-20T06:04:05.797Z,9.65
2022-09-20T06:06:55.992Z,9.66
2022-09-20T06:09:46.142Z,9.68
2022-09-20T06:12:36.611Z,9.69
2022-09-20T06:15:26.568Z,9.71
2022-09-20T06:18:26.200Z,9.74
2022-09-20T06:21:24.428Z,9.76
2022-09-20T06:23:58.703Z,9.81
2022-09-20T06:26:33.905Z,9.80
2022-09-20T06:29:06.843Z,9.80
2022-09-20T06:31:34.772Z,9.83
2022-09-20T06:34:13.586Z,9.85
2022-09-20T06:37:09.021Z,9.88
2022-09-20T06:40:01.536Z,9.90
2022-09-20T06:42:29.757Z,9.92
2022-09-20T06:44:57.522Z,9.94
2022-09-20T06:47:26.310Z,9.96
2022-09-20T06:49:54.505Z,9.99
2022-09-20T06:52:23.166Z,10.02
2022-09-20T06:54:54.318Z,10.05
2022-09-20T06:57:40.678Z,10.10
2022-09-20T07:00:11.788Z,10.13
2022-09-20T07:02:40.217Z,10.15
2022-09-20T07:05:15.294Z,10.15
2022-09-20T07:07:44.289Z,10.14
2022-09-20T07:10:12.316Z,10.15
2022-09-20T07:12:40.155Z,10.16
2022-09-20T07:15:09.013Z,10.17
2022-09-20T07:17:36.951Z,10.19
2022-09-20T07:20:05.048Z,10.21
2022-09-20T07:22:33.241Z,10.23
2022-09-20T07:25:02.497Z,10.27
2022-09-20T07:27:30.404Z,10.31
2022-09-20T07:29:58.370Z,10.34
2022-09-20T07:32:27.161Z,10.37
2022-09-20T07:34:55.398Z,10.41
2022-09-20T07:37:23.316Z,10.46
2022-09-20T07:39:51.205Z,10.50
2022-09-20T07:42:19.017Z,10.52
2022-09-20T07:44:47.762Z,10.55
2022-09-20T07:47:15.621Z,10.59
2022-09-20T07:49:43.685Z,10.61
2022-09-20T07:52:11.623Z,10.62
2022-09-20T07:54:40.019Z,10.63
2022-09-20T07:57:07.987Z,10.66
2022-09-20T07:59:35.873Z,10.67
2022-09-20T08:02:04.758Z,10.67
2022-09-20T08:04:32.706Z,10.67
2022-09-20T08:07:01.623Z,10.67
2022-09-20T08:09:29.470Z,10.67
2022-09-20T08:11:58.187Z,10.67
2022-09-20T08:14:26.232Z,10.67
2022-09-20T08:16:56.396Z,10.68
2022-09-20T08:19:24.485Z,10.69
2022-09-20T08:21:54.112Z,10.69
2022-09-20T08:24:21.927Z,10.69
2022-09-20T08:26:49.777Z,10.71
2022-09-20T08:29:17.829Z,10.73
2022-09-20T08:31:46.601Z,10.74
2022-09-20T08:34:16.461Z,10.77
2022-09-20T08:36:52.070Z,10.80
2022-09-20T08:42:22.287Z,10.91
2022-09-20T08:44:58.180Z,10.98
2022-09-20T08:47:35.947Z,11.06
2022-09-20T08:50:10.293Z,11.16
2022-09-20T08:52:40.819Z,11.23
2022-09-20T08:55:41.909Z,11.27
2022-09-20T08:58:13.622Z,11.32
2022-09-20T09:00:46.574Z,11.37
2022-09-20T09:03:17.708Z,11.42
2022-09-20T09:05:52.916Z,11.47
2022-09-20T09:08:25.580Z,11.55
2022-09-20T09:10:58.938Z,11.62
2022-09-20T09:13:33.006Z,11.68
2022-09-20T09:16:06.891Z,11.74
2022-09-20T09:18:40.587Z,11.79
2022-09-20T09:21:16.092Z,11.84
2022-09-20T09:23:51.533Z,11.89
2022-09-20T09:26:22.690Z,11.92
2022-09-20T09:29:17.678Z,11.95
2022-09-20T09:31:51.884Z,11.97
2022-09-20T09:34:29.143Z,11.99
2022-09-20T09:36:58.620Z,12.01
2022-09-20T09:39:30.267Z,12.04
2022-09-20T09:42:01.511Z,12.05
2022-09-20T09:44:34.042Z,12.07
2022-09-20T09:47:02.433Z,12.09
2022-09-20T09:49:36.725Z,12.13
2022-09-20T09:52:24.870Z,12.16
2022-09-20T09:55:03.667Z,12.19
2022-09-20T09:57:59.002Z,12.21
2022-09-20T10:00:27.423Z,12.23
2022-09-20T10:03:25.156Z,12.26
2022-09-20T10:06:05.076Z,12.30
2022-09-20T10:08:49.824Z,12.33
2022-09-20T10:11:26.619Z,12.34
2022-09-20T10:13:57.815Z,12.34
2022-09-20T10:16:46.994Z,12.34
2022-09-20T10:19:36.483Z,12.36
2022-09-20T10:22:34.025Z,12.39
2022-09-20T10:25:24.621Z,12.42
2022-09-20T10:28:13.637Z,12.45
2022-09-20T10:31:03.098Z,12.50
2022-09-20T10:33:54.271Z,12.57
2022-09-20T10:36:43.897Z,12.64
2022-09-20T10:39:26.311Z,12.70
2022-09-20T10:43:14.069Z,12.75
2022-09-20T10:46:14.445Z,12.82
2022-09-20T10:48:52.615Z,12.90
2022-09-20T10:51:25.832Z,12.97
2022-09-20T10:53:59.935Z,13.04
2022-09-20T10:56:41.521Z,13.09
2022-09-20T10:59:30.312Z,13.14
2022-09-20T11:02:16.761Z,13.21
2022-09-20T11:05:19.276Z,13.30
2022-09-20T11:08:04.447Z,13.44
2022-09-20T11:10:43.232Z,13.55
2022-09-20T11:13:20.731Z,13.67
2022-09-20T11:15:59.660Z,13.81
2022-09-20T11:18:39.231Z,13.92
2022-09-20T11:21:19.456Z,14.00
2022-09-20T11:23:59.340Z,14.05
2022-09-20T11:26:38.252Z,14.08
2022-09-20T11:29:24.751Z,14.13
2022-09-20T11:31:57.223Z,14.20
2022-09-20T11:34:40.231Z,14.26
2022-09-20T11:37:09.472Z,14.32
2022-09-20T11:39:54.388Z,14.38
2022-09-20T11:42:30.596Z,14.47
2022-09-20T11:44:58.569Z,14.57
2022-09-20T11:48:00.187Z,14.66
2022-09-20T11:50:54.789Z,14.73
2022-09-20T11:53:49.648Z,14.76
2022-09-20T11:56:27.779Z,14.77
2022-09-20T11:59:01.616Z,14.77
2022-09-20T12:01:42.945Z,14.77
2022-09-20T12:04:34.734Z,14.81
2022-09-20T12:07:18.607Z,14.86
2022-09-20T12:10:11.802Z,14.92
2022-09-20T12:12:45.550Z,15.02
2022-09-20T12:15:41.856Z,15.09
2022-09-20T12:18:36.502Z,15.18
2022-09-20T12:21:06.208Z,15.24
2022-09-20T12:23:43.300Z,15.26
2022-09-20T12:26:20.999Z,15.28
2022-09-20T12:28:55.181Z,15.34
2022-09-20T12:31:26.416Z,15.40
2022-09-20T12:34:13.391Z,15.41
2022-09-20T12:36:56.464Z,15.41
2022-09-20T12:39:33.104Z,15.42
2022-09-20T12:42:04.617Z,15.47
2022-09-20T12:44:36.445Z,15.53
2022-09-20T12:47:10.313Z,15.59
2022-09-20T12:50:04.324Z,15.65
2022-09-20T12:52:51.061Z,15.68
2022-09-20T12:55:42.585Z,15.68
2022-09-20T12:58:14.535Z,15.62
2022-09-20T13:01:10.613Z,15.58
2022-09-20T13:03:47.165Z,15.58
2022-09-20T13:06:16.617Z,15.62
2022-09-20T13:08:49.506Z,15.65
2022-09-20T13:11:20.835Z,15.65
2022-09-20T13:13:56.118Z,15.69
2022-09-20T13:16:31.963Z,15.76
2022-09-20T13:19:08.020Z,15.84
2022-09-20T13:21:52.238Z,15.92
2022-09-20T13:24:23.661Z,15.98
2022-09-20T13:26:54.136Z,16.02
2022-09-20T13:29:54.378Z,16.02
2022-09-20T13:32:27.174Z,16.04
2022-09-20T13:35:10.237Z,16.06
2022-09-20T13:37:55.133Z,16.09
2022-09-20T13:40:44.995Z,16.11
2022-09-20T13:43:41.492Z,16.13
2022-09-20T13:46:17.141Z,16.16
2022-09-20T13:48:52.855Z,16.23
2022-09-20T13:51:25.674Z,16.31
2022-09-20T13:53:54.190Z,16.35
2022-09-20T13:56:27.560Z,16.37
2022-09-20T13:58:59.013Z,16.37
2022-09-20T14:01:35.866Z,16.40
2022-09-20T14:04:14.720Z,16.41
2022-09-20T14:06:43.037Z,16.43
2022-09-20T14:09:39.469Z,16.47
2022-09-20T14:12:08.385Z,17.14
2022-09-20T14:14:36.894Z,18.53
2022-09-20T14:17:09.868Z,19.25
2022-09-20T14:19:41.417Z,19.24
2022-09-20T14:22:34.372Z,18.62
2022-09-20T14:25:25.420Z,18.04
2022-09-20T14:28:28.834Z,17.60
2022-09-20T14:31:08.341Z,17.28
2022-09-20T14:33:43.656Z,17.67
2022-09-20T14:36:18.863Z,18.13
2022-09-20T14:38:50.270Z,18.30
2022-09-20T14:41:40.851Z,17.61
2022-09-20T14:44:34.130Z,16.81
2022-09-20T14:47:15.411Z,16.14
2022-09-20T14:49:44.393Z,15.63
2022-09-20T14:52:27.607Z,15.26
2022-09-20T14:55:01.286Z,14.92
2022-09-20T14:57:30.194Z,14.62
2022-09-20T14:59:58.322Z,14.36
2022-09-20T15:02:27.612Z,14.50
2022-09-20T15:05:00.332Z,15.68
2022-09-20T15:07:29.015Z,16.77
2022-09-20T15:09:57.068Z,17.11
2022-09-20T15:12:25.477Z,17.15
2022-09-20T15:14:53.263Z,17.22
2022-09-20T15:17:21.808Z,16.69
2022-09-20T15:19:50.313Z,16.06
2022-09-20T15:22:18.125Z,15.59
2022-09-20T15:24:46.556Z,15.25
2022-09-20T15:27:14.927Z,15.61
2022-09-20T15:29:42.724Z,17.41
2022-09-20T15:32:11.267Z,18.20
2022-09-20T15:34:39.300Z,18.24
2022-09-20T15:37:07.421Z,17.36
2022-09-20T15:39:35.744Z,16.57
2022-09-20T15:42:04.432Z,16.01
2022-09-20T15:44:32.947Z,15.59
2022-09-20T15:47:01.737Z,15.40
2022-09-20T15:49:43.879Z,15.56
2022-09-20T15:52:14.430Z,15.74
2022-09-20T15:54:52.198Z,15.80
2022-09-20T15:57:23.745Z,15.71
2022-09-20T15:59:56.638Z,15.56
2022-09-20T16:02:25.429Z,15.36
2022-09-20T16:04:56.759Z,15.17
2022-09-20T16:07:25.898Z,14.97
2022-09-20T16:09:57.274Z,14.84
2022-09-20T16:12:25.951Z,14.75
2022-09-20T16:14:54.195Z,14.67
2022-09-20T16:17:43.357Z,14.63
2022-09-20T16:20:11.496Z,14.59
2022-09-20T16:22:40.142Z,14.52
2022-09-20T16:25:08.766Z,14.45
2022-09-20T16:27:36.933Z,14.39
2022-09-20T16:30:05.293Z,14.31
2022-09-20T16:32:33.504Z,14.25
2022-09-20T16:35:04.180Z,14.15
2022-09-20T16:37:33.277Z,14.08
2022-09-20T16:40:01.425Z,14.03
2022-09-20T16:42:29.877Z,13.98
2022-09-20T16:44:58.908Z,13.92
2022-09-20T16:47:26.836Z,13.83
2022-09-20T16:49:55.291Z,13.71
2022-09-20T16:52:24.633Z,13.58
2022-09-20T16:54:52.506Z,13.49
2022-09-20T16:57:22.945Z,13.39
2022-09-20T16:59:51.974Z,13.30
2022-09-20T17:02:19.947Z,13.24
2022-09-20T17:04:48.048Z,13.20
2022-09-20T17:07:16.803Z,13.17
2022-09-20T17:09:44.719Z,13.15
2022-09-20T17:12:13.949Z,13.12
2022-09-20T17:14:42.156Z,13.09
2022-09-20T17:17:10.504Z,13.06
2022-09-20T17:19:41.126Z,13.04
2022-09-20T17:22:09.847Z,13.01
2022-09-20T17:24:37.703Z,12.96
2022-09-20T17:27:07.850Z,12.92
2022-09-20T17:29:40.507Z,12.89
2022-09-20T17:32:15.347Z,12.87
2022-09-20T17:34:43.738Z,12.84
2022-09-20T17:37:15.789Z,12.79
2022-09-20T17:39:43.776Z,12.76
2022-09-20T17:42:11.782Z,12.74
2022-09-20T17:44:40.059Z,12.71
2022-09-20T17:47:08.276Z,12.68
2022-09-20T17:49:38.552Z,12.65
2022-09-20T17:52:08.201Z,12.61
2022-09-20T17:54:36.227Z,12.57
2022-09-20T17:57:05.687Z,12.54
2022-09-20T17:59:34.708Z,12.52
2022-09-20T18:02:02.569Z,12.49
2022-09-20T18:04:30.609Z,12.46
2022-09-20T18:06:58.814Z,12.42
2022-09-20T18:09:27.671Z,12.40
2022-09-20T18:11:56.671Z,12.37
2022-09-20T18:14:27.970Z,12.37
2022-09-20T18:17:01.266Z,12.39
2022-09-20T18:19:40.897Z,12.34
2022-09-20T18:22:09.176Z,12.30
2022-09-20T18:24:38.391Z,12.27
2022-09-20T18:27:06.319Z,12.25
2022-09-20T18:29:37.085Z,12.23
2022-09-20T18:32:06.838Z,12.21
2022-09-20T18:34:34.816Z,12.17
2022-09-20T18:37:04.078Z,12.11
2022-09-20T18:39:33.686Z,12.03
2022-09-20T18:42:03.521Z,11.97
2022-09-20T18:44:34.573Z,11.92
2022-09-20T18:47:05.456Z,11.90
2022-09-20T18:49:33.648Z,11.88
2022-09-20T18:52:02.549Z,11.89
2022-09-20T18:54:33.367Z,11.90
2022-09-20T18:57:02.486Z,11.89
2022-09-20T18:59:30.582Z,11.86
2022-09-20T19:02:09.595Z,11.83
2022-09-20T19:04:59.120Z,11.81
2022-09-20T19:07:27.844Z,11.79
2022-09-20T19:10:20.622Z,11.77
2022-09-20T19:13:10.094Z,11.74
2022-09-20T19:16:15.766Z,11.71
2022-09-20T19:19:14.954Z,11.69
2022-09-20T19:21:56.644Z,11.66
2022-09-20T19:24:43.480Z,11.64
2022-09-20T19:27:13.334Z,11.62
2022-09-20T19:29:41.764Z,11.60
2022-09-20T19:32:17.351Z,11.58
2022-09-20T19:34:45.836Z,11.58
2022-09-20T19:37:53.794Z,11.56
2022-09-20T19:40:42.850Z,11.54
2022-09-20T19:43:23.831Z,11.53
2022-09-20T19:46:12.532Z,11.52
2022-09-20T19:48:57.255Z,11.50
2022-09-20T19:51:26.346Z,11.48
2022-09-20T19:53:55.538Z,11.46
2022-09-20T19:56:28.516Z,11.45
2022-09-20T19:58:56.795Z,11.42
2022-09-20T20:01:25.995Z,11.38
2022-09-20T20:03:54.965Z,11.35
2022-09-20T20:06:50.870Z,11.35
2022-09-20T20:09:57.358Z,11.49
2022-09-20T20:12:40.742Z,11.46
2022-09-20T20:15:51.397Z,11.37
2022-09-20T20:18:36.635Z,11.28
2022-09-20T20:21:13.870Z,11.21
2022-09-20T20:23:58.760Z,11.13
2022-09-20T20:26:28.844Z,11.08
2022-09-20T20:28:56.792Z,11.05
2022-09-20T20:31:24.639Z,11.02
2022-09-20T20:33:54.407Z,10.99
2022-09-20T20:36:22.580Z,10.96
2022-09-20T20:38:52.704Z,10.93
2022-09-20T20:41:21.817Z,10.89
2022-09-20T20:43:57.315Z,10.85
2022-09-20T20:46:26.061Z,10.80
2022-09-20T20:48:54.273Z,10.77
2022-09-20T20:51:23.036Z,10.73
2022-09-20T20:53:53.089Z,10.70
2022-09-20T20:56:30.308Z,10.66
2022-09-20T20:59:00.703Z,10.65
2022-09-20T21:01:35.011Z,10.64
2022-09-20T21:04:04.990Z,10.63
2022-09-20T21:06:35.170Z,10.62
2022-09-20T21:09:05.162Z,10.61
2022-09-20T21:11:35.954Z,10.59
2022-09-20T21:14:07.269Z,10.58
2022-09-20T21:16:37.722Z,10.58
2022-09-20T21:19:07.004Z,10.58
2022-09-20T21:21:37.203Z,10.57
2022-09-20T21:24:08.708Z,10.57
2022-09-20T21:26:39.010Z,10.61
2022-09-20T21:29:10.657Z,10.62
2022-09-20T21:31:44.168Z,10.62
2022-09-20T21:34:13.927Z,10.63
2022-09-20T21:36:44.852Z,10.63
2022-09-20T21:39:13.380Z,10.64
2022-09-20T21:41:41.748Z,10.64
2022-09-20T21:44:12.335Z,10.65
2022-09-20T21:46:42.408Z,10.65
2022-09-20T21:49:14.294Z,10.65
2022-09-20T21:51:43.284Z,10.64
2022-09-20T21:54:11.327Z,10.64
2022-09-20T21:56:40.347Z,10.63
2022-09-20T21:59:08.582Z,10.61
2022-09-20T22:01:38.851Z,10.60
2022-09-20T22:04:11.810Z,10.58
2022-09-20T22:06:42.286Z,10.56
2022-09-20T22:09:19.518Z,10.54
2022-09-20T22:11:48.832Z,10.52
2022-09-20T22:14:19.777Z,10.50
2022-09-20T22:16:49.156Z,10.47
2022-09-20T22:19:18.187Z,10.47
2022-09-20T22:21:48.278Z,10.55
2022-09-20T22:24:17.802Z,10.95
2022-09-20T22:26:50.996Z,11.32
2022-09-20T22:29:19.152Z,11.67
2022-09-20T22:31:50.211Z,11.93
2022-09-20T22:34:24.378Z,12.15
2022-09-20T22:36:52.631Z,12.32
2022-09-20T22:39:20.434Z,12.47
2022-09-20T22:41:50.921Z,12.59
2022-09-20T22:44:18.782Z,12.68
2022-09-20T22:46:46.680Z,12.75
2022-09-20T22:49:14.769Z,12.80
2022-09-20T22:51:42.789Z,12.86
2022-09-20T22:54:12.390Z,12.91
2022-09-20T22:56:44.024Z,12.91
2022-09-20T22:59:15.335Z,12.91
2022-09-20T23:01:45.881Z,12.99
2022-09-20T23:04:17.660Z,13.02
2022-09-20T23:06:55.076Z,13.05
2022-09-20T23:09:25.644Z,13.05
2022-09-20T23:11:53.451Z,13.03
2022-09-20T23:14:22.315Z,13.06
2022-09-20T23:16:50.438Z,13.08
2022-09-20T23:19:18.376Z,13.06
2022-09-20T23:21:46.419Z,13.04
2022-09-20T23:24:16.139Z,13.05
2022-09-20T23:26:44.677Z,13.06
2022-09-20T23:29:15.581Z,13.04
2022-09-20T23:31:46.458Z,13.03
2022-09-20T23:34:16.740Z,13.01
2022-09-20T23:36:45.453Z,13.08
2022-09-20T23:39:13.988Z,13.13
2022-09-20T23:41:43.951Z,13.16
2022-09-20T23:44:13.981Z,13.05
2022-09-20T23:46:41.684Z,12.69
2022-09-20T23:49:09.561Z,12.33
2022-09-20T23:51:37.799Z,12.07
2022-09-20T23:54:06.196Z,11.88
2022-09-20T23:56:34.103Z,11.74
2022-09-20T23:59:02.157Z,11.59
